createdAt,value
2023-05-14T00:09:26.901Z,85.05
2023-05-14T00:19:31.184Z,86.46
2023-05-14T00:29:34.151Z,86.78
2023-05-14T00:39:38.473Z,88.43
2023-05-14T00:49:41.577Z,91.28
2023-05-14T00:59:46.051Z,91.18
2023-05-14T01:09:59.735Z,94.10
2023-05-14T01:20:04.725Z,95.81
2023-05-14T01:30:18.103Z,96.32
2023-05-14T01:40:22.032Z,98.21
2023-05-14T01:50:27.290Z,100.00
2023-05-14T02:00:30.557Z,100.00
2023-05-14T02:10:36.171Z,100.00
2023-05-14T02:20:39.274Z,100.00
2023-05-14T02:30:43.498Z,100.00
2023-05-14T02:40:46.481Z,100.00
2023-05-14T02:50:51.500Z,100.00
2023-05-14T03:00:54.512Z,100.00
2023-05-14T03:10:59.032Z,100.00
2023-05-14T03:21:02.243Z,100.00
2023-05-14T03:31:06.664Z,100.00
2023-05-14T03:41:09.809Z,100.00
2023-05-14T03:51:14.781Z,100.00
2023-05-14T04:01:17.876Z,100.00
2023-05-14T04:11:22.509Z,100.00
2023-05-14T04:21:25.593Z,100.00
2023-05-14T04:31:29.988Z,100.00
2023-05-14T04:41:32.980Z,100.00
2023-05-14T04:51:37.656Z,100.00
2023-05-14T05:01:40.870Z,100.00
2023-05-14T05:11:45.267Z,100.00
2023-05-14T05:21:48.340Z,100.00
2023-05-14T05:31:52.871Z,100.00
2023-05-14T05:41:56.052Z,100.00
2023-05-14T05:52:00.498Z,100.00
2023-05-14T06:02:03.462Z,100.00
2023-05-14T06:12:08.911Z,100.00
2023-05-14T06:22:11.862Z,100.00
2023-05-14T06:32:16.513Z,100.00
2023-05-14T06:42:19.689Z,100.00
2023-05-14T06:52:25.051Z,99.53
2023-05-14T07:02:28.061Z,96.31
2023-05-14T07:12:32.412Z,90.98
2023-05-14T07:22:35.430Z,88.92
2023-05-14T07:32:39.834Z,85.80
2023-05-14T07:42:42.662Z,84.31
2023-05-14T07:52:47.057Z,84.22
2023-05-14T08:02:50.484Z,82.17
2023-05-14T08:12:54.891Z,78.15
2023-05-14T08:22:58.087Z,76.45
2023-05-14T08:33:02.437Z,75.94
2023-05-14T08:43:05.216Z,75.98
2023-05-14T08:53:09.638Z,75.30
2023-05-14T09:03:13.582Z,73.83
2023-05-14T09:13:17.971Z,69.38
2023-05-14T09:23:20.905Z,68.00
2023-05-14T09:33:29.257Z,66.67
2023-05-14T09:43:32.531Z,65.48
2023-05-14T09:53:37.168Z,63.90
2023-05-14T10:03:40.541Z,63.06
2023-05-14T10:13:51.521Z,62.48
2023-05-14T10:23:55.128Z,63.00
2023-05-14T10:33:59.958Z,56.69
2023-05-14T10:44:10.173Z,56.22
2023-05-14T10:54:14.896Z,59.97
2023-05-14T11:04:20.101Z,56.37
2023-05-14T11:14:24.527Z,55.01
2023-05-14T11:24:27.507Z,55.32
2023-05-14T11:34:31.810Z,55.99
2023-05-14T11:44:35.006Z,53.51
2023-05-14T11:54:39.347Z,52.48
2023-05-14T12:04:43.557Z,49.99
2023-05-14T12:14:48.745Z,47.97
2023-05-14T12:24:55.167Z,47.54
2023-05-14T12:35:01.197Z,45.97
2023-05-14T12:45:07.336Z,41.07
2023-05-14T12:55:12.008Z,34.87
2023-05-14T13:05:15.026Z,37.00
2023-05-14T13:15:19.617Z,33.05
2023-05-14T13:25:23.090Z,43.91
2023-05-14T13:35:27.748Z,40.06
2023-05-14T13:45:31.313Z,40.97
2023-05-14T13:55:36.054Z,42.34
2023-05-14T14:05:39.055Z,41.15
2023-05-14T14:15:43.717Z,41.50
2023-05-14T14:25:46.779Z,43.35
2023-05-14T14:35:51.687Z,42.12
2023-05-14T14:45:54.713Z,45.44
2023-05-14T14:55:58.980Z,45.19
2023-05-14T15:06:02.069Z,47.37
2023-05-14T15:16:07.189Z,46.23
2023-05-14T15:26:10.415Z,42.75
2023-05-14T15:36:15.156Z,43.06
2023-05-14T15:46:18.230Z,43.95
2023-05-14T15:56:23.030Z,43.29
2023-05-14T16:06:26.922Z,47.40
2023-05-14T16:16:31.953Z,48.02
2023-05-14T16:26:35.280Z,48.97
2023-05-14T16:36:39.764Z,50.20
2023-05-14T16:46:43.067Z,52.33
2023-05-14T16:56:48.372Z,53.03
2023-05-14T17:06:51.508Z,57.45
2023-05-14T17:16:56.294Z,71.24
2023-05-14T17:26:59.261Z,73.05
2023-05-14T17:37:03.785Z,74.91
2023-05-14T17:47:08.494Z,77.77
2023-05-14T17:57:12.896Z,80.07
2023-05-14T18:07:16.370Z,82.63
2023-05-14T18:17:20.875Z,83.39
2023-05-14T18:27:23.836Z,82.91
2023-05-14T18:37:28.150Z,83.92
2023-05-14T18:47:30.964Z,86.07
2023-05-14T18:57:35.669Z,88.13
2023-05-14T19:07:39.074Z,89.89
2023-05-14T19:17:43.452Z,90.67
2023-05-14T19:27:50.618Z,92.70
2023-05-14T19:37:54.955Z,93.23
2023-05-14T19:47:58.331Z,94.13
2023-05-14T19:58:02.672Z,95.50
2023-05-14T20:08:08.069Z,96.75
2023-05-14T20:18:12.385Z,99.91
2023-05-14T20:28:15.605Z,100.00
2023-05-14T20:38:19.988Z,100.00
2023-05-14T20:48:23.022Z,100.00
2023-05-14T20:58:28.038Z,100.00
2023-05-14T21:08:32.855Z,100.00
2023-05-14T21:18:37.288Z,100.00
2023-05-14T21:28:40.372Z,100.00
2023-05-14T21:38:44.859Z,100.00
2023-05-14T21:48:47.858Z,100.00
2023-05-14T21:58:52.237Z,100.00
2023-05-14T22:08:55.211Z,100.00
2023-05-14T22:18:59.583Z,100.00
2023-05-14T22:29:02.620Z,100.00
2023-05-14T22:39:07.036Z,100.00
2023-05-14T22:49:09.976Z,100.00
2023-05-14T22:59:14.444Z,100.00
2023-05-14T23:09:17.394Z,100.00
2023-05-14T23:19:22.721Z,100.00
2023-05-14T23:29:25.857Z,100.00
2023-05-14T23:39:30.308Z,100.00
2023-05-14T23:49:33.290Z,100.00
2023-05-14T23:59:40.142Z,100.00
